Historique des mesures à Cassis (13260), France
Quotidien Résumé Octobre 30, 2017 Unités:  Métrique    US   Métrique/US
« Précédent (Jour)
Suivant (Jour) »
Quotidien Hebdomadaire Mensuel Annuel Période au choix
  Maximum: Minimum: Moyenne:
Température: TemperatureC °C 13.3 °C 15.3 °C
Point de rosée: DewpointC °C 5.0 °C 6.3 °C
Humidité: Humidity % 44 % 52 %
Vitesse du vent: 0 km/h 0 km/h 12.1 km/h
Rafales: 0 km/h - -
Vent:- - WSW
Pression: PressurehPa hPa 1004.6 hPa -
Précipitations: 0.0 mm    
Historical Graphs
 
 
Mesures pour : Octobre 30, 2017
Heure Temperature Point de rosée Pression Vent Vitesse du vent Rafales Humidité Pluie (par heure) Conditions
TemperatureC °C DewpointC °C PressurehPa hPa Calm     Humidity % HourlyPrecipMM mm SoftwareType W/m2
00:10 14.8 °C 8.1 °C 1005.0 hPa NNW 17.9 km/h 22.5 km/h 64 % 0.0 mm open2300-1.11 W/m2
01:11 15.0 °C 8.4 °C 1005.0 hPa NW 45.9 km/h 45.9 km/h 65 % 0.0 mm open2300-1.11 W/m2
02:10 14.8 °C 8.5 °C 1004.6 hPa NNE 46.3 km/h 46.3 km/h 66 % 0.0 mm open2300-1.11 W/m2
03:11 14.9 °C 8.1 °C 1005.0 hPa NNW 16.9 km/h 38.8 km/h 64 % 0.0 mm open2300-1.11 W/m2
05:11 13.8 °C 7.9 °C 1006.3 hPa North 29 km/h 29 km/h 68 % 0.0 mm open2300-1.11 W/m2
06:10 13.5 °C 7.0 °C 1006.7 hPa NNW 17.4 km/h 44.1 km/h 65 % 0.0 mm open2300-1.11 W/m2
07:11 13.3 °C 5.9 °C 1007.7 hPa NNE 15.6 km/h 36.5 km/h 61 % 0.0 mm open2300-1.11 W/m2
08:10 13.4 °C 5.3 °C 1008.0 hPa NW 12.2 km/h 23 km/h 58 % 0.0 mm open2300-1.11 W/m2
09:11 14.3 °C 5.9 °C 1009.0 hPa Calm   9.3 km/h 57 % 0.0 mm open2300-1.11 W/m2
10:11 15.5 °C 6.2 °C 1009.4 hPa Calm     54 % 0.0 mm open2300-1.11 W/m2
11:10 17.3 °C 7.1 °C 1009.7 hPa Calm     51 % 0.0 mm open2300-1.11 W/m2
12:11 17.9 °C 6.3 °C 1010.0 hPa WNW 19.2 km/h 19.2 km/h 47 % 0.0 mm open2300-1.11 W/m2
13:10 18.0 °C 6.8 °C 1010.0 hPa WNW 31.9 km/h 31.9 km/h 48 % 0.0 mm open2300-1.11 W/m2
14:11 18.9 °C 7.3 °C 1010.0 hPa WNW 5.1 km/h 22.5 km/h 47 % 0.0 mm open2300-1.11 W/m2
15:10 19.4 °C 7.1 °C 1010.4 hPa Calm   16.3 km/h 45 % 0.0 mm open2300-1.11 W/m2
16:11 19.3 °C 6.7 °C 1010.4 hPa WNW 19.6 km/h 19.6 km/h 44 % 0.0 mm open2300-1.11 W/m2
17:10 18.2 °C 6.3 °C 1011.1 hPa Calm     46 % 0.0 mm open2300-1.11 W/m2
18:11 17.1 °C 5.6 °C 1012.1 hPa WNW 14 km/h 14 km/h 47 % 0.0 mm open2300-1.11 W/m2
19:10 16.4 °C 5.3 °C 1012.8 hPa Calm     48 % 0.0 mm open2300-1.11 W/m2
20:11 15.5 °C 5.2 °C 1013.4 hPa Calm     50 % 0.0 mm open2300-1.11 W/m2
21:10 15.4 °C 5.1 °C 1014.1 hPa Calm     50 % 0.0 mm open2300-1.11 W/m2
22:11 15.3 °C 5.0 °C 1014.4 hPa Calm     50 % 0.0 mm open2300-1.11 W/m2
23:10 15.3 °C 5.2 °C 1015.1 hPa Calm     51 % 0.0 mm open2300-1.11 W/m2
Observations météo à CASSIS
WU-History script by Weather Underground - 1 mb